sensor_id;sensor_type;location;lat;lon;timestamp;pressure;altitude;pressure_sealevel;temperature;humidity
78888;BME280;68276;49.326;8.690;2023-03-01T00:00:37;101218.19;;;-0.12;61.96
78888;BME280;68276;49.326;8.690;2023-03-01T00:03:02;101212.38;;;-0.17;61.71
78888;BME280;68276;49.326;8.690;2023-03-01T00:05:27;101218.59;;;-0.18;62.08
78888;BME280;68276;49.326;8.690;2023-03-01T00:07:53;101220.13;;;-0.14;61.89
78888;BME280;68276;49.326;8.690;2023-03-01T00:10:18;101228.41;;;-0.20;61.75
78888;BME280;68276;49.326;8.690;2023-03-01T00:12:44;101225.88;;;-0.22;62.22
78888;BME280;68276;49.326;8.690;2023-03-01T00:15:09;101221.91;;;-0.29;62.16
78888;BME280;68276;49.326;8.690;2023-03-01T00:17:34;101218.59;;;-0.32;62.38
78888;BME280;68276;49.326;8.690;2023-03-01T00:20:00;101218.03;;;-0.37;62.63
78888;BME280;68276;49.326;8.690;2023-03-01T00:22:26;101213.63;;;-0.37;63.08
78888;BME280;68276;49.326;8.690;2023-03-01T00:24:53;101218.59;;;-0.32;62.32
78888;BME280;68276;49.326;8.690;2023-03-01T00:27:18;101230.13;;;-0.19;62.13
78888;BME280;68276;49.326;8.690;2023-03-01T00:29:43;101229.63;;;-0.12;61.68
78888;BME280;68276;49.326;8.690;2023-03-01T00:32:09;101221.81;;;-0.13;61.70
78888;BME280;68276;49.326;8.690;2023-03-01T00:34:34;101221.69;;;-0.12;61.25
78888;BME280;68276;49.326;8.690;2023-03-01T00:37:00;101224.25;;;-0.10;61.78
78888;BME280;68276;49.326;8.690;2023-03-01T00:39:31;101229.16;;;-0.04;61.95
78888;BME280;68276;49.326;8.690;2023-03-01T00:41:57;101234.34;;;-0.03;61.26
78888;BME280;68276;49.326;8.690;2023-03-01T00:44:23;101224.53;;;-0.01;61.55
78888;BME280;68276;49.326;8.690;2023-03-01T00:46:48;101225.38;;;0.00;61.68
78888;BME280;68276;49.326;8.690;2023-03-01T00:49:13;101231.78;;;0.10;61.33
78888;BME280;68276;49.326;8.690;2023-03-01T00:51:39;101228.19;;;0.11;61.02
78888;BME280;68276;49.326;8.690;2023-03-01T00:54:08;101227.31;;;0.11;61.17
78888;BME280;68276;49.326;8.690;2023-03-01T00:56:33;101226.28;;;0.13;60.90
78888;BME280;68276;49.326;8.690;2023-03-01T00:58:59;101228.53;;;0.19;60.94
78888;BME280;68276;49.326;8.690;2023-03-01T01:01:27;101230.59;;;0.28;60.51
78888;BME280;68276;49.326;8.690;2023-03-01T01:04:08;101232.75;;;0.36;60.09
78888;BME280;68276;49.326;8.690;2023-03-01T01:06:43;101223.75;;;0.38;59.75
78888;BME280;68276;49.326;8.690;2023-03-01T01:09:10;101234.63;;;0.34;60.03
78888;BME280;68276;49.326;8.690;2023-03-01T01:11:43;101224.91;;;0.34;60.16
78888;BME280;68276;49.326;8.690;2023-03-01T01:14:08;101223.22;;;0.33;60.22
78888;BME280;68276;49.326;8.690;2023-03-01T01:16:34;101220.94;;;0.41;60.41
78888;BME280;68276;49.326;8.690;2023-03-01T01:18:59;101217.34;;;0.42;60.06
78888;BME280;68276;49.326;8.690;2023-03-01T01:21:26;101208.84;;;0.37;60.39
78888;BME280;68276;49.326;8.690;2023-03-01T01:23:52;101198.94;;;0.41;60.09
78888;BME280;68276;49.326;8.690;2023-03-01T01:26:23;101198.28;;;0.37;60.24
78888;BME280;68276;49.326;8.690;2023-03-01T01:28:50;101200.19;;;0.35;60.14
78888;BME280;68276;49.326;8.690;2023-03-01T01:31:16;101181.78;;;0.34;60.38
78888;BME280;68276;49.326;8.690;2023-03-01T01:33:42;101185.66;;;0.28;60.45
78888;BME280;68276;49.326;8.690;2023-03-01T01:36:07;101183.78;;;0.30;60.49
78888;BME280;68276;49.326;8.690;2023-03-01T01:38:34;101190.13;;;0.28;60.48
78888;BME280;68276;49.326;8.690;2023-03-01T01:40:59;101182.75;;;0.33;60.42
78888;BME280;68276;49.326;8.690;2023-03-01T01:43:26;101184.31;;;0.35;60.69
78888;BME280;68276;49.326;8.690;2023-03-01T01:45:55;101182.56;;;0.22;60.67
78888;BME280;68276;49.326;8.690;2023-03-01T01:48:28;101183.81;;;0.16;60.90
78888;BME280;68276;49.326;8.690;2023-03-01T01:51:06;101181.94;;;0.18;60.78
78888;BME280;68276;49.326;8.690;2023-03-01T01:53:32;101180.91;;;0.21;60.77
78888;BME280;68276;49.326;8.690;2023-03-01T01:56:00;101178.75;;;0.13;61.19
78888;BME280;68276;49.326;8.690;2023-03-01T01:58:28;101174.09;;;0.17;60.81
78888;BME280;68276;49.326;8.690;2023-03-01T02:00:55;101168.81;;;0.17;61.23
78888;BME280;68276;49.326;8.690;2023-03-01T02:03:25;101159.38;;;0.13;61.01
78888;BME280;68276;49.326;8.690;2023-03-01T02:06:03;101154.78;;;0.02;61.54
78888;BME280;68276;49.326;8.690;2023-03-01T02:08:31;101147.41;;;0.07;61.23
78888;BME280;68276;49.326;8.690;2023-03-01T02:10:59;101147.91;;;0.14;60.99
78888;BME280;68276;49.326;8.690;2023-03-01T02:13:25;101149.78;;;0.12;61.29
78888;BME280;68276;49.326;8.690;2023-03-01T02:15:51;101148.00;;;0.12;61.03
78888;BME280;68276;49.326;8.690;2023-03-01T02:18:18;101141.75;;;0.13;61.11
78888;BME280;68276;49.326;8.690;2023-03-01T02:20:55;101141.97;;;0.10;61.37
78888;BME280;68276;49.326;8.690;2023-03-01T02:23:23;101142.72;;;0.12;61.21
78888;BME280;68276;49.326;8.690;2023-03-01T02:26:04;101138.78;;;0.05;61.38
78888;BME280;68276;49.326;8.690;2023-03-01T02:28:37;101138.13;;;0.02;62.03
78888;BME280;68276;49.326;8.690;2023-03-01T02:31:06;101126.38;;;0.06;61.42
78888;BME280;68276;49.326;8.690;2023-03-01T02:33:51;101132.22;;;0.11;61.39
78888;BME280;68276;49.326;8.690;2023-03-01T02:36:25;101132.94;;;0.00;61.58
78888;BME280;68276;49.326;8.690;2023-03-01T02:38:53;101128.03;;;-0.06;61.98
78888;BME280;68276;49.326;8.690;2023-03-01T02:41:21;101122.41;;;-0.14;61.77
78888;BME280;68276;49.326;8.690;2023-03-01T02:43:47;101121.25;;;-0.10;61.97
78888;BME280;68276;49.326;8.690;2023-03-01T02:46:21;101120.50;;;-0.12;61.90
78888;BME280;68276;49.326;8.690;2023-03-01T02:48:54;101117.13;;;-0.14;62.19
78888;BME280;68276;49.326;8.690;2023-03-01T02:54:07;101113.75;;;-0.16;62.17
78888;BME280;68276;49.326;8.690;2023-03-01T02:56:35;101114.22;;;-0.24;62.66
78888;BME280;68276;49.326;8.690;2023-03-01T02:59:00;101114.13;;;-0.22;62.24
78888;BME280;68276;49.326;8.690;2023-03-01T03:01:27;101103.97;;;-0.28;62.82
78888;BME280;68276;49.326;8.690;2023-03-01T03:04:13;101104.22;;;-0.19;62.48
78888;BME280;68276;49.326;8.690;2023-03-01T03:06:49;101098.28;;;-0.22;62.32
78888;BME280;68276;49.326;8.690;2023-03-01T03:09:15;101100.22;;;-0.12;61.96
78888;BME280;68276;49.326;8.690;2023-03-01T03:11:42;101092.75;;;-0.05;61.63
78888;BME280;68276;49.326;8.690;2023-03-01T03:14:12;101090.72;;;-0.14;62.18
78888;BME280;68276;49.326;8.690;2023-03-01T03:16:44;101093.44;;;-0.16;62.42
78888;BME280;68276;49.326;8.690;2023-03-01T03:19:10;101094.09;;;-0.12;62.11
78888;BME280;68276;49.326;8.690;2023-03-01T03:21:36;101084.09;;;-0.07;61.98
78888;BME280;68276;49.326;8.690;2023-03-01T03:24:02;101084.94;;;-0.07;62.00
78888;BME280;68276;49.326;8.690;2023-03-01T03:26:28;101085.69;;;-0.05;61.75
78888;BME280;68276;49.326;8.690;2023-03-01T03:28:53;101083.75;;;-0.15;62.34
78888;BME280;68276;49.326;8.690;2023-03-01T03:31:19;101078.66;;;-0.18;62.30
78888;BME280;68276;49.326;8.690;2023-03-01T03:33:44;101081.66;;;-0.10;61.95
78888;BME280;68276;49.326;8.690;2023-03-01T03:36:15;101080.81;;;-0.11;61.96
78888;BME280;68276;49.326;8.690;2023-03-01T03:38:43;101080.34;;;-0.17;62.28
78888;BME280;68276;49.326;8.690;2023-03-01T03:41:08;101071.88;;;-0.22;61.99
78888;BME280;68276;49.326;8.690;2023-03-01T03:43:36;101072.84;;;-0.23;62.61
78888;BME280;68276;49.326;8.690;2023-03-01T03:46:03;101073.31;;;-0.31;62.84
78888;BME280;68276;49.326;8.690;2023-03-01T03:48:36;101067.00;;;-0.28;62.90
78888;BME280;68276;49.326;8.690;2023-03-01T03:51:02;101072.38;;;-0.30;62.52
78888;BME280;68276;49.326;8.690;2023-03-01T03:53:30;101068.91;;;-0.30;62.75
78888;BME280;68276;49.326;8.690;2023-03-01T03:55:55;101063.28;;;-0.38;63.16
78888;BME280;68276;49.326;8.690;2023-03-01T03:58:23;101058.06;;;-0.40;63.22
78888;BME280;68276;49.326;8.690;2023-03-01T04:00:52;101056.84;;;-0.34;63.34
78888;BME280;68276;49.326;8.690;2023-03-01T04:03:18;101060.22;;;-0.32;62.96
78888;BME280;68276;49.326;8.690;2023-03-01T04:05:45;101056.84;;;-0.34;63.52
78888;BME280;68276;49.326;8.690;2023-03-01T04:08:12;101052.88;;;-0.41;63.22
78888;BME280;68276;49.326;8.690;2023-03-01T04:10:40;101053.09;;;-0.44;63.63
78888;BME280;68276;49.326;8.690;2023-03-01T04:13:07;101053.09;;;-0.44;63.46
78888;BME280;68276;49.326;8.690;2023-03-01T04:15:34;101052.66;;;-0.51;63.31
78888;BME280;68276;49.326;8.690;2023-03-01T04:18:00;101048.16;;;-0.63;64.26
78888;BME280;68276;49.326;8.690;2023-03-01T04:20:30;101053.13;;;-0.58;63.99
78888;BME280;68276;49.326;8.690;2023-03-01T04:23:02;101051.59;;;-0.48;63.38
78888;BME280;68276;49.326;8.690;2023-03-01T04:25:46;101047.91;;;-0.46;63.08
78888;BME280;68276;49.326;8.690;2023-03-01T04:28:23;101056.59;;;-0.44;63.35
78888;BME280;68276;49.326;8.690;2023-03-01T04:30:50;101046.84;;;-0.43;63.20
78888;BME280;68276;49.326;8.690;2023-03-01T04:33:16;101048.78;;;-0.45;63.78
78888;BME280;68276;49.326;8.690;2023-03-01T04:35:41;101053.28;;;-0.47;63.88
78888;BME280;68276;49.326;8.690;2023-03-01T04:38:07;101051.69;;;-0.50;64.18
78888;BME280;68276;49.326;8.690;2023-03-01T04:40:33;101052.25;;;-0.45;63.65
78888;BME280;68276;49.326;8.690;2023-03-01T04:42:58;101044.31;;;-0.45;63.36
78888;BME280;68276;49.326;8.690;2023-03-01T04:45:24;101055.34;;;-0.38;63.60
78888;BME280;68276;49.326;8.690;2023-03-01T04:47:49;101060.22;;;-0.32;63.14
78888;BME280;68276;49.326;8.690;2023-03-01T04:50:18;101058.88;;;-0.25;62.75
78888;BME280;68276;49.326;8.690;2023-03-01T04:52:46;101054.63;;;-0.28;62.70
78888;BME280;68276;49.326;8.690;2023-03-01T04:55:11;101052.19;;;-0.31;62.89
78888;BME280;68276;49.326;8.690;2023-03-01T04:57:37;101050.22;;;-0.27;62.73
78888;BME280;68276;49.326;8.690;2023-03-01T05:00:05;101046.44;;;-0.23;62.73
78888;BME280;68276;49.326;8.690;2023-03-01T05:02:48;101050.84;;;-0.24;62.42
78888;BME280;68276;49.326;8.690;2023-03-01T05:05:19;101051.31;;;-0.17;62.32
78888;BME280;68276;49.326;8.690;2023-03-01T05:07:44;101052.56;;;-0.23;62.25
78888;BME280;68276;49.326;8.690;2023-03-01T05:10:10;101050.59;;;-0.19;62.56
78888;BME280;68276;49.326;8.690;2023-03-01T05:12:35;101048.22;;;-0.24;62.51
78888;BME280;68276;49.326;8.690;2023-03-01T05:15:03;101046.78;;;-0.15;62.09
78888;BME280;68276;49.326;8.690;2023-03-01T05:17:32;101034.97;;;-0.10;62.05
78888;BME280;68276;49.326;8.690;2023-03-01T05:19:58;101043.84;;;-0.11;61.77
78888;BME280;68276;49.326;8.690;2023-03-01T05:22:24;101042.25;;;-0.13;61.95
78888;BME280;68276;49.326;8.690;2023-03-01T05:24:50;101047.63;;;-0.15;62.21
78888;BME280;68276;49.326;8.690;2023-03-01T05:27:15;101055.06;;;-0.07;61.87
78888;BME280;68276;49.326;8.690;2023-03-01T05:29:41;101057.13;;;-0.12;61.97
78888;BME280;68276;49.326;8.690;2023-03-01T05:32:06;101056.31;;;-0.13;62.49
78888;BME280;68276;49.326;8.690;2023-03-01T05:34:35;101057.34;;;-0.15;61.92
78888;BME280;68276;49.326;8.690;2023-03-01T05:37:01;101056.69;;;-0.19;61.93
78888;BME280;68276;49.326;8.690;2023-03-01T05:39:28;101056.69;;;-0.19;62.23
78888;BME280;68276;49.326;8.690;2023-03-01T05:41:59;101066.06;;;-0.27;62.49
78888;BME280;68276;49.326;8.690;2023-03-01T05:44:27;101060.78;;;-0.27;62.61
78888;BME280;68276;49.326;8.690;2023-03-01T05:46:54;101051.63;;;-0.22;62.05
78888;BME280;68276;49.326;8.690;2023-03-01T05:49:20;101047.69;;;-0.29;62.42
78888;BME280;68276;49.326;8.690;2023-03-01T05:51:50;101053.16;;;-0.32;62.67
78888;BME280;68276;49.326;8.690;2023-03-01T05:54:16;101051.81;;;-0.25;62.12
78888;BME280;68276;49.326;8.690;2023-03-01T05:56:42;101053.97;;;-0.31;62.47
78888;BME280;68276;49.326;8.690;2023-03-01T05:59:08;101042.06;;;-0.37;62.60
78888;BME280;68276;49.326;8.690;2023-03-01T06:01:35;101043.28;;;-0.42;63.14
78888;BME280;68276;49.326;8.690;2023-03-01T06:04:01;101035.47;;;-0.44;62.86
78888;BME280;68276;49.326;8.690;2023-03-01T06:06:26;101043.66;;;-0.48;63.52
78888;BME280;68276;49.326;8.690;2023-03-01T06:08:53;101045.47;;;-0.49;63.14
78888;BME280;68276;49.326;8.690;2023-03-01T06:11:19;101046.72;;;-0.54;63.62
78888;BME280;68276;49.326;8.690;2023-03-01T06:13:45;101047.84;;;-0.58;63.82
78888;BME280;68276;49.326;8.690;2023-03-01T06:16:11;101051.44;;;-0.59;64.17
78888;BME280;68276;49.326;8.690;2023-03-01T06:18:37;101046.06;;;-0.58;63.94
78888;BME280;68276;49.326;8.690;2023-03-01T06:21:04;101040.47;;;-0.53;63.64
78888;BME280;68276;49.326;8.690;2023-03-01T06:23:30;101043.22;;;-0.55;63.58
78888;BME280;68276;49.326;8.690;2023-03-01T06:25:55;101035.19;;;-0.53;63.66
78888;BME280;68276;49.326;8.690;2023-03-01T06:28:21;101051.03;;;-0.53;63.54
78888;BME280;68276;49.326;8.690;2023-03-01T06:30:47;101039.81;;;-0.57;63.79
78888;BME280;68276;49.326;8.690;2023-03-01T06:33:13;101041.63;;;-0.57;63.46
78888;BME280;68276;49.326;8.690;2023-03-01T06:35:39;101048.13;;;-0.49;63.47
78888;BME280;68276;49.326;8.690;2023-03-01T06:38:05;101040.31;;;-0.50;63.18
78888;BME280;68276;49.326;8.690;2023-03-01T06:40:31;101041.50;;;-0.42;63.23
78888;BME280;68276;49.326;8.690;2023-03-01T06:42:57;101046.13;;;-0.45;63.03
78888;BME280;68276;49.326;8.690;2023-03-01T06:45:23;101047.81;;;-0.44;63.31
78888;BME280;68276;49.326;8.690;2023-03-01T06:47:50;101041.78;;;-0.46;63.37
78888;BME280;68276;49.326;8.690;2023-03-01T06:50:17;101046.69;;;-0.40;62.71
78888;BME280;68276;49.326;8.690;2023-03-01T06:52:42;101042.06;;;-0.37;62.80
78888;BME280;68276;49.326;8.690;2023-03-01T06:55:10;101047.03;;;-0.32;62.66
78888;BME280;68276;49.326;8.690;2023-03-01T06:57:36;101041.75;;;-0.32;62.80
78888;BME280;68276;49.326;8.690;2023-03-01T07:00:02;101045.13;;;-0.30;62.71
78888;BME280;68276;49.326;8.690;2023-03-01T07:02:28;101046.81;;;-0.29;63.30
78888;BME280;68276;49.326;8.690;2023-03-01T07:04:53;101032.78;;;-0.30;62.57
78888;BME280;68276;49.326;8.690;2023-03-01T07:07:19;101037.16;;;-0.16;61.77
78888;BME280;68276;49.326;8.690;2023-03-01T07:09:45;101037.50;;;-0.08;61.06
78888;BME280;68276;49.326;8.690;2023-03-01T07:12:11;101039.34;;;0.04;60.67
78888;BME280;68276;49.326;8.690;2023-03-01T07:14:37;101036.31;;;0.10;60.56
78888;BME280;68276;49.326;8.690;2023-03-01T07:17:02;101039.69;;;0.12;60.67
78888;BME280;68276;49.326;8.690;2023-03-01T07:19:27;101030.81;;;0.13;60.83
78888;BME280;68276;49.326;8.690;2023-03-01T07:21:53;101034.41;;;0.12;60.48
78888;BME280;68276;49.326;8.690;2023-03-01T07:24:20;101019.63;;;0.22;60.39
78888;BME280;68276;49.326;8.690;2023-03-01T07:26:51;101019.19;;;0.28;60.07
78888;BME280;68276;49.326;8.690;2023-03-01T07:29:17;101012.03;;;0.30;59.80
78888;BME280;68276;49.326;8.690;2023-03-01T07:31:42;101008.75;;;0.39;59.32
78888;BME280;68276;49.326;8.690;2023-03-01T07:34:08;101011.41;;;0.39;59.61
78888;BME280;68276;49.326;8.690;2023-03-01T07:36:33;101002.50;;;0.40;58.95
78888;BME280;68276;49.326;8.690;2023-03-01T07:38:59;100999.34;;;0.48;59.01
78888;BME280;68276;49.326;8.690;2023-03-01T07:41:27;101004.41;;;0.51;58.86
78888;BME280;68276;49.326;8.690;2023-03-01T07:43:53;101009.31;;;0.57;58.79
78888;BME280;68276;49.326;8.690;2023-03-01T07:46:18;101001.28;;;0.71;58.34
78888;BME280;68276;49.326;8.690;2023-03-01T07:48:44;100994.78;;;0.75;58.18
78888;BME280;68276;49.326;8.690;2023-03-01T07:51:10;100995.22;;;0.81;58.00
78888;BME280;68276;49.326;8.690;2023-03-01T07:53:35;100992.13;;;0.87;57.44
78888;BME280;68276;49.326;8.690;2023-03-01T07:56:08;100987.59;;;0.89;57.26
78888;BME280;68276;49.326;8.690;2023-03-01T07:58:34;100989.38;;;1.01;57.02
78888;BME280;68276;49.326;8.690;2023-03-01T08:01:02;100991.69;;;1.06;56.97
78888;BME280;68276;49.326;8.690;2023-03-01T08:03:28;100991.66;;;1.18;56.76
78888;BME280;68276;49.326;8.690;2023-03-01T08:05:54;101003.78;;;1.34;55.79
78888;BME280;68276;49.326;8.690;2023-03-01T08:08:19;100991.28;;;1.36;55.85
78888;BME280;68276;49.326;8.690;2023-03-01T08:10:44;100997.59;;;1.46;55.40
78888;BME280;68276;49.326;8.690;2023-03-01T08:13:10;100998.72;;;1.54;55.85
78888;BME280;68276;49.326;8.690;2023-03-01T08:15:35;101001.50;;;1.53;55.15
78888;BME280;68276;49.326;8.690;2023-03-01T08:18:01;100991.88;;;1.52;55.24
78888;BME280;68276;49.326;8.690;2023-03-01T08:20:26;101004.22;;;1.64;54.87
78888;BME280;68276;49.326;8.690;2023-03-01T08:22:52;101003.75;;;1.70;54.71
78888;BME280;68276;49.326;8.690;2023-03-01T08:25:17;100999.00;;;1.86;54.27
78888;BME280;68276;49.326;8.690;2023-03-01T08:27:42;101000.25;;;1.93;54.14
78888;BME280;68276;49.326;8.690;2023-03-01T08:30:09;100996.66;;;1.94;53.74
78888;BME280;68276;49.326;8.690;2023-03-01T08:32:39;100989.16;;;1.88;54.17
78888;BME280;68276;49.326;8.690;2023-03-01T08:35:05;100988.41;;;1.86;54.17
78888;BME280;68276;49.326;8.690;2023-03-01T08:37:31;100985.72;;;1.98;53.95
78888;BME280;68276;49.326;8.690;2023-03-01T08:39:57;100975.25;;;2.08;53.82
78888;BME280;68276;49.326;8.690;2023-03-01T08:42:23;100982.06;;;2.23;53.83
78888;BME280;68276;49.326;8.690;2023-03-01T08:44:48;100980.13;;;2.25;53.45
78888;BME280;68276;49.326;8.690;2023-03-01T08:47:14;100978.09;;;2.28;53.30
78888;BME280;68276;49.326;8.690;2023-03-01T08:49:39;100973.16;;;2.35;53.11
78888;BME280;68276;49.326;8.690;2023-03-01T08:52:04;100972.34;;;2.46;52.80
78888;BME280;68276;49.326;8.690;2023-03-01T08:54:30;100964.88;;;2.51;52.25
78888;BME280;68276;49.326;8.690;2023-03-01T08:56:55;100968.25;;;2.53;52.35
78888;BME280;68276;49.326;8.690;2023-03-01T08:59:21;100975.38;;;2.63;52.08
78888;BME280;68276;49.326;8.690;2023-03-01T09:01:46;100970.06;;;2.52;52.14
78888;BME280;68276;49.326;8.690;2023-03-01T09:04:12;100965.13;;;2.70;52.74
78888;BME280;68276;49.326;8.690;2023-03-01T09:06:38;100972.75;;;2.85;51.99
78888;BME280;68276;49.326;8.690;2023-03-01T09:09:04;100963.81;;;2.75;51.84
78888;BME280;68276;49.326;8.690;2023-03-01T09:11:30;100967.16;;;2.77;52.06
78888;BME280;68276;49.326;8.690;2023-03-01T09:13:56;100955.84;;;2.86;51.69
78888;BME280;68276;49.326;8.690;2023-03-01T09:16:22;100966.22;;;3.00;51.75
78888;BME280;68276;49.326;8.690;2023-03-01T09:18:52;100958.25;;;3.00;51.08
78888;BME280;68276;49.326;8.690;2023-03-01T09:21:21;100962.56;;;3.01;50.49
78888;BME280;68276;49.326;8.690;2023-03-01T09:23:48;100956.31;;;3.02;51.11
78888;BME280;68276;49.326;8.690;2023-03-01T09:26:19;100958.38;;;3.10;50.78
78888;BME280;68276;49.326;8.690;2023-03-01T09:28:45;100958.31;;;3.32;50.24
78888;BME280;68276;49.326;8.690;2023-03-01T09:31:12;100962.91;;;3.41;49.79
78888;BME280;68276;49.326;8.690;2023-03-01T09:33:39;100957.69;;;3.39;50.48
78888;BME280;68276;49.326;8.690;2023-03-01T09:36:12;100949.72;;;3.39;49.84
78888;BME280;68276;49.326;8.690;2023-03-01T09:38:38;100951.88;;;3.45;49.81
78888;BME280;68276;49.326;8.690;2023-03-01T09:43:51;100953.16;;;3.62;49.40
78888;BME280;68276;49.326;8.690;2023-03-01T09:46:22;100953.44;;;3.80;49.26
78888;BME280;68276;49.326;8.690;2023-03-01T09:48:58;100946.88;;;3.63;49.66
78888;BME280;68276;49.326;8.690;2023-03-01T09:51:32;100950.34;;;3.75;49.43
78888;BME280;68276;49.326;8.690;2023-03-01T09:53:59;100939.72;;;3.75;49.73
78888;BME280;68276;49.326;8.690;2023-03-01T09:56:30;100943.16;;;3.86;48.68
78888;BME280;68276;49.326;8.690;2023-03-01T10:02:11;100933.78;;;4.03;48.64
78888;BME280;68276;49.326;8.690;2023-03-01T10:04:48;100921.06;;;4.06;48.55
78888;BME280;68276;49.326;8.690;2023-03-01T10:07:22;100921.56;;;4.21;48.79
78888;BME280;68276;49.326;8.690;2023-03-01T10:09:52;100922.63;;;4.29;48.18
78888;BME280;68276;49.326;8.690;2023-03-01T10:12:25;100928.16;;;4.47;47.57
78888;BME280;68276;49.326;8.690;2023-03-01T10:15:15;100921.31;;;4.44;47.26
78888;BME280;68276;49.326;8.690;2023-03-01T10:18:11;100916.00;;;4.44;47.47
78888;BME280;68276;49.326;8.690;2023-03-01T10:20:46;100916.94;;;4.64;47.36
78888;BME280;68276;49.326;8.690;2023-03-01T10:23:12;100908.41;;;4.70;46.85
78888;BME280;68276;49.326;8.690;2023-03-01T10:25:52;100907.91;;;4.86;46.34
78888;BME280;68276;49.326;8.690;2023-03-01T10:28:31;100906.28;;;5.04;46.03
78888;BME280;68276;49.326;8.690;2023-03-01T10:31:00;100890.47;;;5.12;45.96
78888;BME280;68276;49.326;8.690;2023-03-01T10:33:35;100885.31;;;5.29;46.23
78888;BME280;68276;49.326;8.690;2023-03-01T10:36:05;100885.06;;;5.42;45.33
78888;BME280;68276;49.326;8.690;2023-03-01T10:38:46;100882.09;;;5.64;44.97
78888;BME280;68276;49.326;8.690;2023-03-01T10:41:12;100879.16;;;5.38;45.46
78888;BME280;68276;49.326;8.690;2023-03-01T10:46:34;100871.72;;;5.70;44.83
78888;BME280;68276;49.326;8.690;2023-03-01T10:51:40;100870.16;;;5.77;43.88
78888;BME280;68276;49.326;8.690;2023-03-01T10:54:19;100859.41;;;5.89;43.63
78888;BME280;68276;49.326;8.690;2023-03-01T10:56:53;100862.44;;;6.13;43.24
78888;BME280;68276;49.326;8.690;2023-03-01T10:59:42;100849.69;;;5.97;43.80
78888;BME280;68276;49.326;8.690;2023-03-01T11:02:37;100841.50;;;6.08;43.57
78888;BME280;68276;49.326;8.690;2023-03-01T11:05:23;100837.84;;;6.19;43.58
78888;BME280;68276;49.326;8.690;2023-03-01T11:07:50;100837.06;;;6.36;43.21
78888;BME280;68276;49.326;8.690;2023-03-01T11:10:22;100835.00;;;6.30;42.62
78888;BME280;68276;49.326;8.690;2023-03-01T11:12:50;100824.69;;;6.08;42.55
78888;BME280;68276;49.326;8.690;2023-03-01T11:15:22;100827.41;;;6.35;42.92
78888;BME280;68276;49.326;8.690;2023-03-01T11:17:48;100824.81;;;6.43;42.15
78888;BME280;68276;49.326;8.690;2023-03-01T11:22:48;100819.75;;;6.76;42.23
78888;BME280;68276;49.326;8.690;2023-03-01T11:25:17;100814.06;;;6.89;41.54
78888;BME280;68276;49.326;8.690;2023-03-01T11:27:45;100806.94;;;6.80;42.33
78888;BME280;68276;49.326;8.690;2023-03-01T11:35:35;100799.19;;;7.04;41.57
78888;BME280;68276;49.326;8.690;2023-03-01T11:38:06;100797.50;;;7.03;40.96
78888;BME280;68276;49.326;8.690;2023-03-01T11:40:39;100789.50;;;7.03;41.45
78888;BME280;68276;49.326;8.690;2023-03-01T11:51:22;100776.22;;;6.93;41.71
78888;BME280;68276;49.326;8.690;2023-03-01T11:53:59;100769.97;;;6.85;41.07
78888;BME280;68276;49.326;8.690;2023-03-01T11:56:43;100771.59;;;7.13;40.44
78888;BME280;68276;49.326;8.690;2023-03-01T12:09:02;100733.88;;;7.59;39.13
78888;BME280;68276;49.326;8.690;2023-03-01T12:19:51;100708.78;;;8.11;39.14
78888;BME280;68276;49.326;8.690;2023-03-01T12:22:32;100712.44;;;8.10;39.06
78888;BME280;68276;49.326;8.690;2023-03-01T12:27:56;100699.84;;;8.29;38.78
78888;BME280;68276;49.326;8.690;2023-03-01T12:39:02;100682.53;;;8.65;37.40
78888;BME280;68276;49.326;8.690;2023-03-01T12:44:52;100681.66;;;8.06;37.97
78888;BME280;68276;49.326;8.690;2023-03-01T12:50:14;100680.66;;;8.41;37.46
78888;BME280;68276;49.326;8.690;2023-03-01T12:52:46;100663.72;;;8.33;38.35
78888;BME280;68276;49.326;8.690;2023-03-01T12:55:32;100658.28;;;8.82;37.26
78888;BME280;68276;49.326;8.690;2023-03-01T13:00:47;100653.44;;;9.26;36.87
78888;BME280;68276;49.326;8.690;2023-03-01T13:03:28;100645.72;;;9.23;36.63
78888;BME280;68276;49.326;8.690;2023-03-01T13:11:32;100637.78;;;9.62;35.37
78888;BME280;68276;49.326;8.690;2023-03-01T13:16:49;100633.59;;;11.12;33.24
78888;BME280;68276;49.326;8.690;2023-03-01T13:19:20;100628.09;;;11.06;32.78
78888;BME280;68276;49.326;8.690;2023-03-01T13:21:48;100618.16;;;13.09;29.07
78888;BME280;68276;49.326;8.690;2023-03-01T13:24:33;100625.25;;;12.53;29.82
78888;BME280;68276;49.326;8.690;2023-03-01T13:29:52;100610.88;;;12.31;29.78
78888;BME280;68276;49.326;8.690;2023-03-01T13:32:32;100606.34;;;12.17;31.01
78888;BME280;68276;49.326;8.690;2023-03-01T13:35:42;100604.59;;;13.02;28.80
78888;BME280;68276;49.326;8.690;2023-03-01T13:37:47;100605.28;;;14.67;26.58
78888;BME280;68276;49.326;8.690;2023-03-01T13:42:43;100611.25;;;13.27;28.83
78888;BME280;68276;49.326;8.690;2023-03-01T13:48:08;100596.25;;;12.76;29.08
78888;BME280;68276;49.326;8.690;2023-03-01T13:50:43;100613.09;;;13.27;28.54
78888;BME280;68276;49.326;8.690;2023-03-01T13:53:15;100605.59;;;13.50;27.98
78888;BME280;68276;49.326;8.690;2023-03-01T13:55:45;100610.81;;;14.33;26.84
78888;BME280;68276;49.326;8.690;2023-03-01T13:58:29;100609.19;;;14.38;26.74
78888;BME280;68276;49.326;8.690;2023-03-01T14:01:04;100594.69;;;14.65;26.31
78888;BME280;68276;49.326;8.690;2023-03-01T14:03:34;100595.47;;;13.99;26.96
78888;BME280;68276;49.326;8.690;2023-03-01T14:06:14;100590.19;;;13.78;27.18
78888;BME280;68276;49.326;8.690;2023-03-01T14:08:45;100589.66;;;14.43;27.52
78888;BME280;68276;49.326;8.690;2023-03-01T14:14:18;100586.66;;;13.77;26.91
78888;BME280;68276;49.326;8.690;2023-03-01T14:17:13;100584.88;;;14.38;26.65
78888;BME280;68276;49.326;8.690;2023-03-01T14:19:43;100576.78;;;14.51;26.31
78888;BME280;68276;49.326;8.690;2023-03-01T14:22:28;100587.75;;;13.90;26.94
78888;BME280;68276;49.326;8.690;2023-03-01T14:25:19;100589.28;;;14.05;26.71
78888;BME280;68276;49.326;8.690;2023-03-01T14:28:00;100580.31;;;13.98;26.83
78888;BME280;68276;49.326;8.690;2023-03-01T14:30:32;100576.28;;;13.81;27.74
78888;BME280;68276;49.326;8.690;2023-03-01T14:33:03;100584.69;;;13.03;28.34